Time;durP1;ratioP1;P1;durP2;ratioP2;P2;SDS_P1;SDS_P2;PMS_P1;PMS_P2;Temp;Humidity;BMP_temperature;BMP_pressure;BME280_temperature;BME280_humidity;BME280_pressure;Samples;Min_cycle;Max_cycle;Signal;HPM_P1;HPM_P2
2023/01/08 00:01:42;;;;;;;3.90;2.85;;;9.50;99.90;;;;;;4996961;28;20381;-33
2023/01/08 00:04:08;;;;;;;4.82;2.88;;;9.60;99.90;;;;;;5013844;28;20046;-32
2023/01/08 00:06:36;;;;;;;5.82;2.88;;;9.60;99.90;;;;;;5013820;28;20052;-33
2023/01/08 00:09:02;;;;;;;4.53;2.42;;;9.60;99.90;;;;;;5013778;28;20050;-33
2023/01/08 00:11:28;;;;;;;4.10;2.50;;;9.70;99.90;;;;;;5013721;28;20173;-33
2023/01/08 00:13:54;;;;;;;5.15;2.88;;;9.60;99.90;;;;;;5013773;28;20088;-32
2023/01/08 00:16:20;;;;;;;4.45;2.53;;;9.70;99.90;;;;;;5013754;28;20046;-33
2023/01/08 00:18:46;;;;;;;3.35;2.42;;;9.70;99.90;;;;;;5013728;28;20149;-33
2023/01/08 00:21:13;;;;;;;5.68;2.97;;;9.60;99.90;;;;;;5013912;28;20050;-32
2023/01/08 00:23:39;;;;;;;6.15;3.20;;;9.60;99.90;;;;;;5013582;28;20054;-33
2023/01/08 00:26:07;;;;;;;3.72;2.28;;;9.60;99.90;;;;;;4980284;28;20048;-32
2023/01/08 00:28:33;;;;;;;5.15;2.85;;;9.60;99.90;;;;;;5014010;28;20123;-33
2023/01/08 00:31:01;;;;;;;3.80;2.53;;;9.60;99.90;;;;;;5014151;28;20129;-32
2023/01/08 00:33:27;;;;;;;5.80;2.60;;;9.60;99.90;;;;;;4981085;28;20050;-32
2023/01/08 00:35:53;;;;;;;3.92;2.50;;;9.60;99.90;;;;;;5000172;28;20050;-32
2023/01/08 00:38:18;;;;;;;4.28;2.28;;;9.60;99.90;;;;;;5017452;28;20045;-33
2023/01/08 00:40:46;;;;;;;5.50;2.50;;;9.70;99.90;;;;;;5017610;28;20041;-33
2023/01/08 00:43:12;;;;;;;4.53;2.70;;;9.60;99.90;;;;;;5017328;28;20049;-32
2023/01/08 00:45:38;;;;;;;2.90;2.25;;;9.60;99.90;;;;;;5017252;28;20124;-32
2023/01/08 00:48:04;;;;;;;4.40;2.95;;;9.60;99.90;;;;;;5017803;28;20053;-32
2023/01/08 00:50:30;;;;;;;3.88;2.60;;;9.60;99.90;;;;;;5016908;28;20490;-33
2023/01/08 00:52:56;;;;;;;3.30;2.30;;;9.60;99.90;;;;;;5017156;28;20088;-32
2023/01/08 00:55:21;;;;;;;3.65;2.83;;;9.50;99.90;;;;;;5017127;28;20085;-33
2023/01/08 00:57:47;;;;;;;5.32;2.75;;;9.50;99.90;;;;;;5017057;28;20053;-32
2023/01/08 01:00:15;;;;;;;4.43;2.20;;;9.50;99.90;;;;;;5016930;28;20143;-32
2023/01/08 01:02:41;;;;;;;5.65;2.70;;;9.50;99.90;;;;;;5017209;28;20365;-33
2023/01/08 01:05:08;;;;;;;2.97;2.10;;;9.60;99.90;;;;;;4999430;28;20042;-33
2023/01/08 01:07:34;;;;;;;5.78;2.92;;;9.50;99.90;;;;;;5016914;28;20095;-33
2023/01/08 01:10:00;;;;;;;4.75;2.67;;;9.60;99.90;;;;;;5016791;28;20038;-33
2023/01/08 01:12:26;;;;;;;3.83;2.10;;;9.50;93.50;;;;;;5017567;28;20057;-32
2023/01/08 01:14:51;;;;;;;4.97;2.25;;;9.40;99.90;;;;;;4999294;28;20042;-32
2023/01/08 01:17:17;;;;;;;3.80;2.33;;;9.30;99.90;;;;;;5016686;28;20454;-33
2023/01/08 01:19:43;;;;;;;6.28;2.30;;;9.30;99.90;;;;;;5016582;28;20085;-32
2023/01/08 01:22:09;;;;;;;3.78;1.83;;;9.40;99.90;;;;;;5016583;28;20089;-33
2023/01/08 01:24:35;;;;;;;6.38;2.50;;;9.40;99.90;;;;;;5017306;28;20050;-32
2023/01/08 01:27:00;;;;;;;10.77;2.50;;;9.40;1.00;;;;;;4999090;28;20480;-33
2023/01/08 01:29:26;;;;;;;6.47;1.98;;;9.50;99.90;;;;;;5008624;28;20057;-32
2023/01/08 01:31:52;;;;;;;8.73;2.15;;;9.50;1.00;;;;;;5016680;28;20046;-33
2023/01/08 01:34:18;;;;;;;7.57;2.20;;;9.50;1.00;;;;;;5014935;28;20044;-32
2023/01/08 01:36:43;;;;;;;5.55;1.95;;;9.50;1.00;;;;;;4999319;28;20119;-32
2023/01/08 01:39:09;;;;;;;6.18;1.98;;;9.50;99.90;;;;;;5015286;28;20069;-32
2023/01/08 01:41:41;;;;;;;4.80;2.22;;;9.40;78.80;;;;;;5015029;28;20046;-33
2023/01/08 01:44:34;;;;;;;5.13;1.73;;;9.40;99.90;;;;;;5016190;28;20054;-32
2023/01/08 01:47:20;;;;;;;3.80;1.85;;;9.40;1.00;;;;;;5015737;28;20111;-32
2023/01/08 01:49:55;;;;;;;4.95;1.80;;;9.40;1.00;;;;;;4999152;28;20057;-32
2023/01/08 01:52:22;;;;;;;5.63;2.25;;;9.30;1.00;;;;;;5014935;28;20056;-32
2023/01/08 01:54:50;;;;;;;10.30;2.13;;;9.30;1.00;;;;;;5015997;28;20506;-32
2023/01/08 01:57:16;;;;;;;5.47;2.10;;;9.30;31.50;;;;;;5016532;28;20057;-33
2023/01/08 01:59:43;;;;;;;3.65;1.80;;;9.30;78.10;;;;;;5015899;28;20050;-32
2023/01/08 02:02:08;;;;;;;6.95;1.98;;;9.20;99.90;;;;;;5014743;28;20049;-32
2023/01/08 02:04:34;;;;;;;7.50;2.22;;;9.20;99.90;;;;;;5015832;28;20495;-32
2023/01/08 02:07:27;;;;;;;4.50;1.85;;;9.10;99.90;;;;;;5015850;28;20050;-32
2023/01/08 02:10:05;;;;;;;9.10;2.58;;;9.10;99.90;;;;;;5016378;28;20396;-31
2023/01/08 02:12:41;;;;;;;4.22;2.25;;;9.00;99.90;;;;;;5016579;28;20099;-32
2023/01/08 02:15:16;;;;;;;5.60;2.05;;;9.00;99.90;;;;;;5016312;28;20115;-33
2023/01/08 02:18:02;;;;;;;14.52;2.58;;;8.90;99.90;;;;;;5015526;28;20404;-32
2023/01/08 02:20:35;;;;;;;5.63;1.55;;;9.00;99.90;;;;;;5016092;28;20425;-32
2023/01/08 02:23:28;;;;;;;5.35;1.70;;;9.00;99.90;;;;;;5015354;28;20058;-32
2023/01/08 02:26:21;;;;;;;6.10;2.03;;;8.90;99.90;;;;;;5001441;28;20053;-32
2023/01/08 02:28:59;;;;;;;7.45;2.05;;;8.80;99.90;;;;;;5015882;28;20066;-32
2023/01/08 02:31:27;;;;;;;8.05;2.20;;;8.80;99.90;;;;;;5016208;28;20156;-32
2023/01/08 02:33:53;;;;;;;5.32;2.08;;;8.70;99.90;;;;;;5015234;28;20137;-32
2023/01/08 02:36:28;;;;;;;7.63;1.92;;;8.60;99.90;;;;;;5015484;28;20133;-32
2023/01/08 02:39:30;;;;;;;6.93;1.90;;;8.60;99.90;;;;;;5015157;28;20092;-32
2023/01/08 02:42:08;;;;;;;8.55;1.88;;;8.50;99.90;;;;;;4981057;28;20042;-32
2023/01/08 02:44:40;;;;;;;9.45;1.95;;;8.40;99.90;;;;;;4981303;28;20100;-32
2023/01/08 02:47:14;;;;;;;10.55;2.55;;;8.50;99.90;;;;;;5015939;28;20045;-32
2023/01/08 02:49:45;;;;;;;8.63;1.70;;;8.40;99.90;;;;;;5015334;28;20045;-32
2023/01/08 02:52:12;;;;;;;12.55;2.40;;;8.30;99.90;;;;;;5015244;28;20488;-31
2023/01/08 02:54:40;;;;;;;9.82;2.17;;;8.20;99.90;;;;;;4981380;28;20041;-32
2023/01/08 02:57:16;;;;;;;9.32;2.15;;;8.20;1.00;;;;;;4981947;28;20112;-31
2023/01/08 02:59:44;;;;;;;9.27;1.98;;;8.20;99.90;;;;;;5014763;28;20049;-32
2023/01/08 03:02:10;;;;;;;11.93;2.35;;;8.10;99.90;;;;;;4997853;28;20064;-31
2023/01/08 03:04:47;;;;;;;12.65;2.17;;;8.00;99.90;;;;;;5015249;28;20052;-31
2023/01/08 03:07:13;;;;;;;10.13;1.83;;;8.00;99.90;;;;;;4997617;28;20132;-31
2023/01/08 03:09:39;;;;;;;12.07;1.75;;;7.90;1.00;;;;;;5014695;28;20133;-33
2023/01/08 03:12:15;;;;;;;12.88;1.98;;;8.00;1.00;;;;;;4997222;28;20052;-32
2023/01/08 03:14:51;;;;;;;11.20;1.58;;;7.90;99.90;;;;;;5014615;28;20124;-33
2023/01/08 03:17:21;;;;;;;17.70;2.10;;;7.80;99.90;;;;;;4980480;28;20111;-31
2023/01/08 03:20:10;;;;;;;13.18;2.17;;;7.70;1.00;;;;;;5014443;28;20053;-32
2023/01/08 03:22:39;;;;;;;14.57;3.05;;;7.70;1.00;;;;;;5014375;28;20053;-32
2023/01/08 03:25:07;;;;;;;12.95;2.40;;;7.60;99.90;;;;;;5014355;28;20444;-31
2023/01/08 03:27:37;;;;;;;13.02;2.80;;;7.60;1.00;;;;;;5014887;28;20100;-32
2023/01/08 03:30:06;;;;;;;11.77;1.98;;;7.50;1.00;;;;;;5014134;28;20058;-31
2023/01/08 03:32:33;;;;;;;12.00;2.25;;;7.40;1.00;;;;;;5014238;28;20049;-31
2023/01/08 03:35:01;;;;;;;19.23;2.95;;;7.40;1.00;;;;;;5014193;28;20514;-32
2023/01/08 03:37:34;;;;;;;14.73;2.38;;;7.30;1.00;;;;;;5014176;28;20128;-33
2023/01/08 03:40:10;;;;;;;11.65;1.77;;;7.40;1.00;;;;;;5014212;28;20041;-32
2023/01/08 03:42:36;;;;;;;18.90;2.88;;;7.40;1.00;;;;;;5014410;28;20057;-32
2023/01/08 03:45:02;;;;;;;16.00;1.98;;;7.40;1.00;;;;;;5014070;28;20068;-31
2023/01/08 03:47:30;;;;;;;11.73;2.15;;;7.50;1.00;;;;;;5014672;28;20049;-32
2023/01/08 03:50:02;;;;;;;13.45;2.00;;;7.50;1.00;;;;;;5014783;28;20050;-32
2023/01/08 03:52:30;;;;;;;8.38;2.03;;;7.50;6.20;;;;;;4996941;28;20413;-32
2023/01/08 03:54:57;;;;;;;14.77;2.10;;;7.50;1.00;;;;;;5013979;28;20119;-31
2023/01/08 03:57:22;;;;;;;15.20;3.13;;;7.60;1.00;;;;;;5014506;28;20054;-32
2023/01/08 03:59:48;;;;;;;11.77;2.53;;;7.60;7.10;;;;;;5013839;28;20160;-31
2023/01/08 04:02:14;;;;;;;12.00;2.38;;;7.60;23.10;;;;;;5014722;28;20042;-31
2023/01/08 04:04:40;;;;;;;11.25;2.38;;;7.60;99.90;;;;;;4996551;28;20464;-32
2023/01/08 04:07:06;;;;;;;12.07;1.77;;;7.50;99.90;;;;;;5013852;28;20124;-32
2023/01/08 04:09:32;;;;;;;10.13;2.22;;;7.60;99.90;;;;;;5019852;28;20051;-31
2023/01/08 04:11:58;;;;;;;8.55;1.70;;;7.60;99.90;;;;;;5020378;28;20124;-34
2023/01/08 04:14:24;;;;;;;8.30;2.28;;;7.50;99.90;;;;;;5020328;28;20085;-32
2023/01/08 04:16:49;;;;;;;9.98;2.75;;;7.60;99.90;;;;;;5020295;28;20050;-31
2023/01/08 04:19:15;;;;;;;8.35;2.38;;;7.60;99.90;;;;;;5020240;28;20496;-32
2023/01/08 04:21:41;;;;;;;10.90;1.95;;;7.70;99.90;;;;;;5003451;28;20125;-31
2023/01/08 04:24:07;;;;;;;8.77;3.13;;;7.70;95.70;;;;;;5020423;28;20042;-32
2023/01/08 04:26:33;;;;;;;12.63;3.28;;;7.70;99.90;;;;;;5003468;28;20045;-32
2023/01/08 04:29:02;;;;;;;11.23;2.80;;;7.60;99.90;;;;;;5020350;28;20123;-31
2023/01/08 04:31:28;;;;;;;9.20;2.88;;;7.60;99.90;;;;;;5020454;28;20053;-31
2023/01/08 04:33:54;;;;;;;11.30;1.95;;;7.60;99.90;;;;;;5020676;28;20045;-31
2023/01/08 04:36:19;;;;;;;8.50;2.10;;;7.50;99.90;;;;;;5020633;28;20054;-32
2023/01/08 04:38:45;;;;;;;6.93;2.05;;;7.40;99.90;;;;;;5020071;28;20038;-32
2023/01/08 04:41:11;;;;;;;10.20;2.33;;;7.40;99.90;;;;;;5020315;28;20038;-31
2023/01/08 04:43:36;;;;;;;9.45;1.80;;;7.40;99.90;;;;;;4970084;28;20061;-32
2023/01/08 04:46:06;;;;;;;11.70;2.35;;;7.30;99.90;;;;;;5020004;28;20042;-31
2023/01/08 04:48:32;;;;;;;5.68;1.92;;;7.30;99.90;;;;;;5002463;28;20400;-33
2023/01/08 04:50:59;;;;;;;9.02;2.08;;;7.20;99.90;;;;;;5020538;28;20045;-31
2023/01/08 04:53:25;;;;;;;9.02;2.13;;;7.20;99.90;;;;;;5019959;28;20058;-32
2023/01/08 04:55:50;;;;;;;9.75;2.90;;;7.10;99.90;;;;;;5019926;28;20096;-31
2023/01/08 04:58:16;;;;;;;11.73;3.10;;;7.20;99.90;;;;;;5002812;28;20054;-32
2023/01/08 05:00:42;;;;;;;10.82;2.70;;;7.10;99.90;;;;;;5019841;28;20469;-32
2023/01/08 05:03:08;;;;;;;9.23;2.30;;;7.20;99.90;;;;;;5019864;28;20089;-32
2023/01/08 05:05:34;;;;;;;8.48;2.22;;;7.20;99.90;;;;;;5002560;28;20108;-31
2023/01/08 05:08:00;;;;;;;7.32;2.30;;;7.20;99.90;;;;;;5002274;28;20465;-32
2023/01/08 05:10:26;;;;;;;10.60;2.47;;;7.20;99.90;;;;;;5019871;28;20132;-31
2023/01/08 05:12:56;;;;;;;6.95;2.45;;;7.20;99.90;;;;;;5019779;28;20092;-31
2023/01/08 05:15:22;;;;;;;10.13;2.80;;;7.20;99.90;;;;;;5019772;28;20085;-32
2023/01/08 05:17:47;;;;;;;9.88;2.67;;;7.20;99.90;;;;;;5019765;28;20081;-31
2023/01/08 05:20:13;;;;;;;10.85;3.53;;;7.20;99.90;;;;;;5017925;28;20050;-32
2023/01/08 05:22:39;;;;;;;6.38;2.33;;;7.10;99.90;;;;;;5016610;28;20045;-31
2023/01/08 05:25:05;;;;;;;8.77;3.22;;;7.10;99.90;;;;;;5016621;28;20049;-32
2023/01/08 05:27:30;;;;;;;7.63;2.78;;;7.10;99.90;;;;;;5016807;28;20385;-31
2023/01/08 05:29:56;;;;;;;11.27;3.00;;;7.20;99.90;;;;;;5016491;28;20064;-31
2023/01/08 05:32:22;;;;;;;9.48;3.05;;;7.30;99.90;;;;;;5016470;28;20046;-33
2023/01/08 05:34:48;;;;;;;7.28;2.90;;;7.40;99.90;;;;;;5016685;28;20389;-32
2023/01/08 05:37:13;;;;;;;7.20;3.15;;;7.50;99.90;;;;;;5016353;28;20046;-32
2023/01/08 05:39:39;;;;;;;5.82;2.65;;;7.60;99.90;;;;;;5016898;28;20492;-31
2023/01/08 05:42:05;;;;;;;6.88;2.97;;;7.70;99.90;;;;;;4983079;28;20388;-32
2023/01/08 05:44:30;;;;;;;7.43;2.38;;;7.70;99.90;;;;;;5017081;28;20050;-33
2023/01/08 05:46:56;;;;;;;9.10;3.38;;;7.70;99.90;;;;;;5016156;28;20488;-32
2023/01/08 05:49:22;;;;;;;12.18;2.78;;;7.70;99.90;;;;;;5016786;28;20403;-32
2023/01/08 05:51:49;;;;;;;7.95;3.00;;;7.70;99.90;;;;;;5016106;28;20033;-32
2023/01/08 05:54:15;;;;;;;7.53;2.40;;;7.60;99.90;;;;;;5016366;28;20045;-32
2023/01/08 05:56:42;;;;;;;6.18;2.38;;;7.60;99.90;;;;;;4998595;28;20054;-32
2023/01/08 05:59:12;;;;;;;5.30;2.47;;;7.50;99.90;;;;;;5016527;28;20108;-31
2023/01/08 06:01:38;;;;;;;7.75;2.80;;;7.50;99.90;;;;;;5015912;28;20552;-32
2023/01/08 06:04:04;;;;;;;7.15;2.70;;;7.50;99.90;;;;;;5015934;28;20132;-31
2023/01/08 06:06:29;;;;;;;5.63;2.80;;;7.50;99.90;;;;;;5015821;28;20057;-32
2023/01/08 06:08:55;;;;;;;6.93;2.10;;;7.50;99.90;;;;;;5015788;28;20038;-32
2023/01/08 06:11:21;;;;;;;11.60;2.17;;;7.50;99.90;;;;;;4998312;28;20104;-31
2023/01/08 06:13:46;;;;;;;8.80;2.35;;;7.50;99.90;;;;;;5016209;28;20045;-32
2023/01/08 06:16:12;;;;;;;11.68;2.05;;;7.40;99.90;;;;;;5016152;28;20050;-31
2023/01/08 06:18:38;;;;;;;5.82;1.70;;;7.40;99.90;;;;;;5015597;28;20052;-32
2023/01/08 06:21:04;;;;;;;8.45;1.50;;;7.50;99.90;;;;;;5015179;28;20089;-32
2023/01/08 06:23:33;;;;;;;6.63;1.27;;;7.50;99.90;;;;;;4997942;28;20046;-31
2023/01/08 06:26:00;;;;;;;6.55;1.50;;;7.40;2.30;;;;;;5016241;28;20100;-32
2023/01/08 06:28:26;;;;;;;6.85;1.38;;;7.50;1.00;;;;;;5015269;28;20105;-31
2023/01/08 06:30:51;;;;;;;7.68;1.90;;;7.50;1.00;;;;;;5014908;28;20042;-32
2023/01/08 06:33:18;;;;;;;5.22;1.20;;;7.50;99.90;;;;;;5015364;28;20125;-31
2023/01/08 06:35:44;;;;;;;6.07;1.10;;;7.50;99.90;;;;;;5015304;28;20045;-32
2023/01/08 06:38:10;;;;;;;5.57;1.25;;;7.40;99.90;;;;;;4997666;28;20503;-31
2023/01/08 06:40:35;;;;;;;7.75;2.40;;;7.40;1.00;;;;;;4981299;28;20085;-31
2023/01/08 06:43:02;;;;;;;3.65;1.35;;;7.40;1.00;;;;;;5015136;28;20054;-31
2023/01/08 06:45:28;;;;;;;6.60;1.58;;;7.40;1.00;;;;;;5015623;28;20053;-31
2023/01/08 06:47:54;;;;;;;5.90;1.98;;;7.30;1.00;;;;;;5015063;28;20046;-32
2023/01/08 06:50:20;;;;;;;6.63;1.88;;;7.20;1.00;;;;;;5015053;28;20108;-31
2023/01/08 06:52:53;;;;;;;6.60;2.30;;;7.10;1.00;;;;;;5015005;28;20049;-32
2023/01/08 06:55:20;;;;;;;7.57;2.22;;;7.20;73.30;;;;;;5015248;28;20448;-31
2023/01/08 06:57:45;;;;;;;8.13;2.67;;;7.10;91.40;;;;;;5015423;28;20128;-31
2023/01/08 07:00:12;;;;;;;9.98;2.80;;;7.00;99.90;;;;;;5014464;28;20129;-32
2023/01/08 07:02:37;;;;;;;8.95;2.85;;;7.00;99.90;;;;;;4981055;28;20041;-31
2023/01/08 07:05:03;;;;;;;11.18;3.70;;;6.90;99.90;;;;;;4997221;28;20100;-31
2023/01/08 07:07:29;;;;;;;7.85;3.88;;;6.90;99.90;;;;;;5014708;28;20132;-31
2023/01/08 07:09:55;;;;;;;8.30;3.13;;;7.00;99.90;;;;;;5014664;28;20046;-32
2023/01/08 07:12:21;;;;;;;6.28;3.17;;;7.00;99.90;;;;;;5014926;28;20081;-31
2023/01/08 07:14:46;;;;;;;6.15;3.33;;;7.00;99.90;;;;;;4997053;28;20045;-31
2023/01/08 07:17:12;;;;;;;7.45;3.05;;;7.10;99.90;;;;;;4997033;28;20128;-31
2023/01/08 07:19:38;;;;;;;8.32;3.10;;;7.00;99.90;;;;;;5014526;28;20120;-32
2023/01/08 07:22:03;;;;;;;6.65;3.60;;;7.00;99.90;;;;;;4996784;28;20508;-31
2023/01/08 07:24:29;;;;;;;6.70;3.30;;;7.00;99.90;;;;;;4964217;28;20049;-32
2023/01/08 07:26:55;;;;;;;5.70;3.00;;;6.90;99.90;;;;;;4996920;28;20049;-32
2023/01/08 07:29:21;;;;;;;13.38;4.47;;;6.90;99.90;;;;;;5014369;28;20053;-32
2023/01/08 07:31:47;;;;;;;7.80;3.70;;;6.80;99.90;;;;;;5014852;28;20461;-32
2023/01/08 07:34:12;;;;;;;7.65;3.58;;;6.80;99.90;;;;;;5014250;28;20053;-32
2023/01/08 07:36:38;;;;;;;8.00;3.47;;;6.80;99.90;;;;;;5014258;28;20049;-32
2023/01/08 07:39:04;;;;;;;9.15;3.33;;;6.80;99.90;;;;;;4980721;28;20057;-32
2023/01/08 07:41:29;;;;;;;7.18;3.95;;;6.90;99.90;;;;;;5014105;28;20129;-31
2023/01/08 07:43:55;;;;;;;12.57;3.33;;;6.90;99.90;;;;;;4995729;28;20080;-31
2023/01/08 07:46:21;;;;;;;6.75;3.10;;;6.90;99.90;;;;;;5014063;28;20084;-31
2023/01/08 07:48:47;;;;;;;8.40;2.40;;;6.90;99.90;;;;;;4980349;28;20480;-32
2023/01/08 07:51:13;;;;;;;8.10;2.65;;;6.80;99.90;;;;;;5013878;28;20132;-31
2023/01/08 07:53:39;;;;;;;8.25;2.60;;;6.80;99.90;;;;;;5014198;28;20133;-31
2023/01/08 07:56:07;;;;;;;9.55;2.97;;;6.90;99.90;;;;;;4996497;28;20480;-31
2023/01/08 07:58:33;;;;;;;7.45;3.25;;;6.80;99.90;;;;;;5013761;28;20056;-31
2023/01/08 08:01:00;;;;;;;11.73;3.10;;;6.80;99.90;;;;;;5013958;28;20435;-31
2023/01/08 08:03:26;;;;;;;11.18;3.47;;;6.80;99.90;;;;;;4996220;28;20100;-32
2023/01/08 08:05:51;;;;;;;7.25;3.15;;;6.80;99.90;;;;;;5013778;28;20049;-31
2023/01/08 08:08:18;;;;;;;7.38;3.30;;;6.80;99.90;;;;;;5013738;28;20119;-31
2023/01/08 08:10:44;;;;;;;11.10;3.92;;;6.80;99.90;;;;;;5013674;28;20049;-31
2023/01/08 08:13:11;;;;;;;10.65;3.80;;;6.80;99.90;;;;;;5013881;28;20392;-31
2023/01/08 08:15:37;;;;;;;8.80;3.53;;;6.70;99.90;;;;;;5013720;28;20092;-32
2023/01/08 08:18:04;;;;;;;8.35;3.85;;;6.80;99.90;;;;;;5014555;28;20045;-32
2023/01/08 08:20:30;;;;;;;12.40;4.63;;;6.80;99.90;;;;;;5013680;28;20046;-32
2023/01/08 08:23:04;;;;;;;10.02;4.00;;;6.80;99.90;;;;;;5013640;28;20103;-32
2023/01/08 08:25:30;;;;;;;11.32;4.18;;;6.70;99.90;;;;;;5013736;28;20456;-32
2023/01/08 08:27:57;;;;;;;12.23;5.10;;;6.90;99.90;;;;;;5013880;28;20472;-31
2023/01/08 08:30:24;;;;;;;7.20;3.03;;;6.90;99.90;;;;;;4996321;28;20144;-32
2023/01/08 08:32:50;;;;;;;9.63;4.05;;;6.90;99.90;;;;;;5013591;28;20054;-32
2023/01/08 08:35:15;;;;;;;12.32;4.13;;;6.90;99.90;;;;;;5013568;28;20056;-31
2023/01/08 08:37:41;;;;;;;14.18;3.30;;;7.00;99.90;;;;;;5014365;28;20046;-32
2023/01/08 08:40:08;;;;;;;12.00;4.97;;;7.00;99.90;;;;;;5013536;28;20104;-32
2023/01/08 08:42:34;;;;;;;32.25;15.43;;;6.90;99.90;;;;;;4996082;28;20112;-31
2023/01/08 08:45:02;;;;;;;9.10;3.88;;;6.90;99.90;;;;;;5014286;28;20443;-31
2023/01/08 08:47:27;;;;;;;10.98;4.40;;;6.90;99.90;;;;;;5014258;28;20046;-31
2023/01/08 08:49:53;;;;;;;10.50;3.45;;;6.90;99.90;;;;;;4995861;28;20500;-31
2023/01/08 08:52:19;;;;;;;7.45;3.47;;;6.90;99.90;;;;;;4996103;28;20093;-31
2023/01/08 08:54:45;;;;;;;8.80;2.40;;;6.90;99.90;;;;;;4997156;28;20046;-32
2023/01/08 08:57:11;;;;;;;9.02;3.75;;;6.90;99.90;;;;;;5017186;28;20049;-31
2023/01/08 08:59:37;;;;;;;9.48;2.95;;;6.90;99.90;;;;;;5017096;28;20089;-31
2023/01/08 09:02:03;;;;;;;12.88;3.10;;;7.00;99.90;;;;;;4999668;28;20081;-31
2023/01/08 09:04:33;;;;;;;7.57;2.80;;;7.00;99.90;;;;;;5017789;28;20081;-31
2023/01/08 09:06:59;;;;;;;9.80;3.22;;;7.00;99.90;;;;;;5016914;28;20381;-32
2023/01/08 09:09:25;;;;;;;12.55;2.58;;;7.00;99.90;;;;;;4983919;28;20042;-31
2023/01/08 09:11:52;;;;;;;10.50;2.85;;;7.10;99.90;;;;;;5000145;28;20366;-31
2023/01/08 09:14:18;;;;;;;8.15;2.60;;;7.10;99.90;;;;;;5016771;28;20061;-31
2023/01/08 09:16:43;;;;;;;11.45;2.80;;;7.10;99.90;;;;;;5016767;28;20050;-32
2023/01/08 09:19:09;;;;;;;14.35;3.80;;;7.20;99.90;;;;;;4983268;28;20112;-31
2023/01/08 09:21:35;;;;;;;9.43;3.10;;;7.20;99.90;;;;;;4999107;28;20038;-31
2023/01/08 09:24:01;;;;;;;7.30;2.65;;;7.20;99.90;;;;;;5016549;28;20046;-31
2023/01/08 09:26:29;;;;;;;9.20;2.20;;;7.20;99.90;;;;;;4999171;28;20056;-32
2023/01/08 09:28:56;;;;;;;12.73;2.58;;;7.30;99.90;;;;;;5002208;28;20062;-31
2023/01/08 09:31:22;;;;;;;6.53;2.25;;;7.30;99.90;;;;;;5017043;28;20048;-32
2023/01/08 09:33:48;;;;;;;7.57;1.83;;;7.30;99.90;;;;;;5017284;28;20124;-32
2023/01/08 09:36:14;;;;;;;6.30;2.28;;;7.40;42.80;;;;;;5016500;28;20046;-32
2023/01/08 09:38:39;;;;;;;7.97;2.00;;;7.50;83.70;;;;;;5016405;28;20052;-32
2023/01/08 09:41:10;;;;;;;8.35;2.00;;;7.50;99.90;;;;;;5014906;28;20118;-32
2023/01/08 09:43:42;;;;;;;8.43;1.90;;;7.50;72.60;;;;;;5016363;28;20050;-32
2023/01/08 09:46:08;;;;;;;10.65;2.17;;;7.50;1.00;;;;;;5015881;28;20381;-31
2023/01/08 09:48:37;;;;;;;9.00;1.98;;;7.60;1.00;;;;;;5016250;28;20057;-32
2023/01/08 09:51:04;;;;;;;7.43;2.10;;;7.60;1.00;;;;;;5016200;28;20042;-32
2023/01/08 09:53:31;;;;;;;8.02;1.60;;;7.70;1.00;;;;;;5016435;28;20046;-31
2023/01/08 09:56:04;;;;;;;6.25;1.55;;;7.70;99.90;;;;;;5016334;28;20092;-31
2023/01/08 09:58:51;;;;;;;7.97;1.77;;;7.70;99.90;;;;;;5016588;28;20049;-32
2023/01/08 10:01:23;;;;;;;10.45;1.88;;;7.70;99.90;;;;;;5015673;28;20057;-33
2023/01/08 10:04:05;;;;;;;8.82;1.80;;;7.80;99.90;;;;;;5014965;28;20096;-31
2023/01/08 10:06:31;;;;;;;9.75;2.40;;;7.80;99.90;;;;;;5014433;28;20049;-32
2023/01/08 10:08:57;;;;;;;11.73;2.00;;;7.80;99.90;;;;;;5014628;28;20042;-31
2023/01/08 10:11:27;;;;;;;12.80;2.42;;;7.80;99.90;;;;;;5014627;28;20050;-32
2023/01/08 10:13:55;;;;;;;4.88;2.00;;;7.80;19.20;;;;;;5015707;28;20045;-32
2023/01/08 10:16:32;;;;;;;10.77;2.38;;;7.90;1.00;;;;;;5015650;28;20050;-31
2023/01/08 10:18:59;;;;;;;6.95;2.20;;;7.90;1.00;;;;;;5015717;28;20175;-31
2023/01/08 10:21:35;;;;;;;10.82;2.05;;;7.90;81.50;;;;;;5015792;28;20125;-31
2023/01/08 10:24:01;;;;;;;5.47;1.42;;;8.00;1.00;;;;;;5015607;28;20049;-32
2023/01/08 10:26:30;;;;;;;10.48;1.58;;;8.00;1.00;;;;;;5016222;28;20362;-31
2023/01/08 10:29:13;;;;;;;8.18;2.42;;;8.00;1.00;;;;;;5015123;28;20050;-31
2023/01/08 10:31:44;;;;;;;8.40;1.77;;;8.00;99.90;;;;;;5015407;28;20042;-32
2023/01/08 10:34:11;;;;;;;10.57;2.45;;;8.10;1.00;;;;;;5015612;28;20050;-31
2023/01/08 10:36:41;;;;;;;12.05;2.22;;;8.10;99.90;;;;;;5015255;28;20052;-32
2023/01/08 10:39:22;;;;;;;11.63;2.65;;;8.10;99.90;;;;;;4998436;28;20124;-31
2023/01/08 10:41:52;;;;;;;9.38;2.15;;;8.10;99.90;;;;;;4998420;28;20140;-32
2023/01/08 10:44:20;;;;;;;17.55;2.65;;;8.10;46.60;;;;;;5015572;28;20050;-31
2023/01/08 10:46:49;;;;;;;13.30;3.47;;;8.20;91.70;;;;;;5015809;28;20104;-31
2023/01/08 10:49:17;;;;;;;10.75;2.35;;;8.20;99.90;;;;;;4997727;28;20108;-31
2023/01/08 10:51:52;;;;;;;7.68;2.00;;;8.20;99.90;;;;;;5014962;28;20088;-31
2023/01/08 10:54:34;;;;;;;13.23;2.97;;;8.20;99.90;;;;;;5014918;28;20049;-31
2023/01/08 10:57:00;;;;;;;11.98;1.95;;;8.20;1.00;;;;;;4982013;28;20049;-32
2023/01/08 10:59:26;;;;;;;18.75;4.10;;;8.30;1.00;;;;;;4981391;28;20455;-31
2023/01/08 11:01:57;;;;;;;13.45;3.03;;;8.30;1.00;;;;;;5014848;28;20085;-32
2023/01/08 11:04:31;;;;;;;13.10;4.13;;;8.30;1.00;;;;;;5014918;28;20413;-32
2023/01/08 11:07:03;;;;;;;12.43;2.65;;;8.30;1.00;;;;;;5015346;28;20389;-32
2023/01/08 11:09:39;;;;;;;12.80;1.90;;;8.30;1.00;;;;;;5015108;28;20037;-32
2023/01/08 11:12:34;;;;;;;16.02;2.03;;;8.20;1.00;;;;;;5015292;28;20273;-32
2023/01/08 11:15:00;;;;;;;8.27;2.15;;;8.20;1.00;;;;;;5014591;28;20049;-32
2023/01/08 11:17:27;;;;;;;10.80;2.47;;;8.30;1.00;;;;;;5014433;28;20052;-32
2023/01/08 11:19:52;;;;;;;11.10;2.13;;;8.30;26.60;;;;;;4997767;28;20088;-31
2023/01/08 11:22:24;;;;;;;9.43;2.08;;;8.40;99.90;;;;;;5014975;28;20086;-31
2023/01/08 11:24:52;;;;;;;10.38;2.35;;;8.40;1.00;;;;;;5014378;28;20053;-31
2023/01/08 11:27:25;;;;;;;12.50;2.95;;;8.50;99.90;;;;;;5014637;28;20125;-32
2023/01/08 11:30:00;;;;;;;16.65;2.83;;;8.50;99.90;;;;;;5005464;28;20131;-32
2023/01/08 11:33:04;;;;;;;12.20;2.47;;;8.60;71.60;;;;;;5015182;28;20466;-32
2023/01/08 11:35:39;;;;;;;14.23;2.20;;;8.60;99.90;;;;;;4935143;29;20106;-31
2023/01/08 11:38:07;;;;;;;12.15;2.97;;;8.70;1.00;;;;;;5004846;28;20058;-31
2023/01/08 11:41:04;;;;;;;15.20;2.10;;;8.60;99.90;;;;;;5014195;28;20041;-31
2023/01/08 11:44:01;;;;;;;10.75;2.42;;;8.50;99.90;;;;;;5014503;28;20072;-31
2023/01/08 11:47:00;;;;;;;12.77;2.47;;;8.50;19.20;;;;;;5014495;28;20092;-31
2023/01/08 11:49:31;;;;;;;11.52;1.92;;;8.50;99.90;;;;;;5014068;28;20147;-32
2023/01/08 11:52:17;;;;;;;12.20;2.55;;;8.50;99.90;;;;;;5014694;28;20049;-32
2023/01/08 11:54:52;;;;;;;13.82;2.13;;;8.60;91.00;;;;;;5014627;28;20439;-31
2023/01/08 11:57:32;;;;;;;12.95;2.65;;;8.60;99.90;;;;;;5014504;28;20053;-31
2023/01/08 12:00:14;;;;;;;12.73;3.00;;;8.60;1.00;;;;;;5013018;28;20054;-31
2023/01/08 12:02:54;;;;;;;9.43;2.38;;;8.60;99.90;;;;;;5013873;28;20086;-33
2023/01/08 12:05:29;;;;;;;13.55;2.60;;;8.60;1.00;;;;;;5013799;28;20387;-31
2023/01/08 12:08:05;;;;;;;12.35;2.70;;;8.70;99.90;;;;;;5012845;28;20054;-31
2023/01/08 12:10:43;;;;;;;9.85;2.30;;;8.70;99.90;;;;;;5013825;28;20042;-32
2023/01/08 12:13:30;;;;;;;11.23;2.50;;;8.70;99.90;;;;;;5014621;28;20069;-33
2023/01/08 12:16:05;;;;;;;13.45;4.20;;;8.70;99.90;;;;;;5014336;28;20072;-32
2023/01/08 12:18:48;;;;;;;14.23;3.20;;;8.70;97.80;;;;;;5013004;28;20061;-32
2023/01/08 12:21:45;;;;;;;14.15;1.90;;;8.70;99.90;;;;;;5013166;28;20054;-32
2023/01/08 12:24:21;;;;;;;17.20;2.72;;;8.60;99.90;;;;;;4979620;28;20195;-32
2023/01/08 12:27:04;;;;;;;14.98;2.35;;;8.60;1.00;;;;;;5014059;28;20436;-32
2023/01/08 12:29:55;;;;;;;8.43;2.95;;;8.60;99.90;;;;;;5014552;28;20141;-31
2023/01/08 12:32:35;;;;;;;11.23;2.58;;;8.80;99.90;;;;;;5017664;28;20056;-32
2023/01/08 12:35:20;;;;;;;13.85;2.38;;;8.80;1.00;;;;;;5017691;28;20197;-32
2023/01/08 12:37:58;;;;;;;15.43;3.05;;;8.70;1.00;;;;;;5001098;28;20046;-32
2023/01/08 12:40:44;;;;;;;13.60;2.78;;;8.80;99.90;;;;;;5000663;28;20046;-31
2023/01/08 12:43:30;;;;;;;8.05;2.30;;;8.80;99.90;;;;;;5017225;28;20485;-33
2023/01/08 12:46:00;;;;;;;31.77;21.85;;;8.80;1.00;;;;;;5000090;28;20481;-31
2023/01/08 12:48:29;;;;;;;14.95;2.90;;;8.80;99.90;;;;;;5018175;28;20045;-31
2023/01/08 12:51:23;;;;;;;13.60;2.42;;;9.00;99.90;;;;;;5017261;28;20472;-31
2023/01/08 12:54:00;;;;;;;15.32;3.13;;;9.00;1.00;;;;;;5000757;28;20419;-32
2023/01/08 12:56:44;;;;;;;11.43;2.90;;;8.90;1.00;;;;;;5000705;28;20465;-31
2023/01/08 12:59:22;;;;;;;10.18;2.05;;;8.90;99.90;;;;;;5000137;28;20050;-32
2023/01/08 13:02:06;;;;;;;12.27;2.47;;;8.90;39.20;;;;;;5000290;28;20052;-31
2023/01/08 13:04:42;;;;;;;12.98;1.95;;;8.90;1.00;;;;;;5017343;28;20046;-31
2023/01/08 13:07:17;;;;;;;11.10;2.20;;;9.00;99.90;;;;;;5017207;28;20073;-32
2023/01/08 13:09:43;;;;;;;13.98;2.33;;;9.10;37.50;;;;;;4999687;28;20062;-31